Aérodrome :
LOGIN :

S'inscrire | Disclaimer

   EN    FR    IT 

 










Légende :    VFR   VFR Marginal   IFR   IFR Intensif   IFR Très Intensif
Visi : 
Plafond : 
>= 8 km
>= 3000ft
5 à 8 km
1000 à 3000 ft
1500m à 5 km
500 à 1000 ft
800 à 1500m
200 à 500 ft
< 800m
< 200 ft
Symboles :   Orages  Brouillard  Fortes neiges  Fortes précipitations  Vent > 20 kt
SIGMETs :   Divers  Orages  Givrage  Turbulence  Onde Orograph.  Cendres Volcan.







- Altitude de l'aérodrome : 53 ft
- Code IATA : AGP


LEMG - Malaga

DERNIER METAR :
  • 142100Z 09005G15KT 360V150 9999 FEW035 SCT060 19/14 Q1016 NOSIG

METARs EXPIRÉS :
  • 142030Z 11005KT 9999 FEW035 SCT060 18/14 Q1016 NOSIG
  • 142000Z 18003KT 080V220 9999 FEW035 SCT060 18/14 Q1016 NOSIG
  • 141930Z 12003KT 080V200 9999 FEW035 18/14 Q1015 NOSIG
  • 141900Z 14001KT 9999 FEW035 18/14 Q1015 NOSIG
  • 141830Z 15006KT 080V210 9999 FEW035 18/14 Q1015 NOSIG

TAF TAF LEMG
Valide du 14 à 18h jusqu'au 15 à 18h UTC


141700Z 1418/1518 13006KT 9999 FEW035 BKN080 TX21/1513Z TN15/1507Z
BECMG 1420/1422 VRB03KT
BECMG 1502/1504 27005KT
BECMG 1510/1512 10006KT
PROB40
TEMPO 1500/1506 -SHRA BKN012 FEW030TCU
Pas de NOTAMs connus pour ce terrain.
1 SIGMET publié pour la FIR Madrid (LECM) :
 
Orages noyés dans la masse
LECM SIGMET 2 VALID 142025/150000 LEVA
LECM MADRID FIR/UIR EMBD TS OBS AT 2025Z S OF LINE N3617 W00322 - N3644 W00155 TOP FL360 STNR NC=



MET'MAP, la Météo Aéronautique d'un coup d'oeil ! - Copyright ORBIFLY Décembre 2007 - Disclaimer

ORBIFLY MET'MAP TEAM :

Programmation & Développement : Alexandra Zaïnal
Conception & Développement : Baudouin d'Aumeries
Co-Programmation & Développement : Marc-Olivier Méhu
Soutien technique & logistique : Manuel Goepfert

Contact : metmap@orbifly.com




SOURCES & CREDITS :

   NOAA